createdAt,value
2023-04-14T11:01:44.188Z,29.20
2023-04-14T11:03:18.102Z,33.60
2023-04-14T11:05:01.094Z,35.20
2023-04-14T11:06:47.751Z,44.60
2023-04-14T11:08:25.228Z,42.20
2023-04-14T11:10:20.908Z,46.80
2023-04-14T11:11:54.502Z,52.33
2023-04-14T11:13:26.384Z,54.25
2023-04-14T11:15:04.920Z,57.75
2023-04-14T11:16:44.700Z,63.50
2023-04-14T11:18:36.076Z,69.25
2023-04-14T11:20:21.474Z,73.50
2023-04-14T11:21:54.030Z,71.75
2023-04-14T11:23:29.002Z,73.00
2023-04-14T11:25:00.955Z,73.00
2023-04-14T11:26:33.232Z,56.00
2023-04-14T11:28:05.198Z,73.00
2023-04-14T11:29:37.096Z,73.25
2023-04-14T11:31:11.189Z,89.75
2023-04-14T11:32:51.357Z,83.50
2023-04-14T11:34:28.481Z,88.50
2023-04-14T11:36:01.740Z,82.75
2023-04-14T11:37:35.687Z,77.25
2023-04-14T11:39:07.626Z,78.75
2023-04-14T11:40:39.505Z,80.25
2023-04-14T11:42:11.496Z,82.00
2023-04-14T11:43:47.286Z,84.00
2023-04-14T11:45:19.264Z,84.25
2023-04-14T11:46:51.099Z,80.00
2023-04-14T11:48:23.104Z,88.00
2023-04-14T11:49:55.027Z,77.25
2023-04-14T11:51:32.539Z,89.25
2023-04-14T11:53:20.403Z,100.25
2023-04-14T11:54:52.463Z,91.75
2023-04-14T11:56:25.067Z,89.20
2023-04-14T11:57:57.392Z,105.60
2023-04-14T11:59:29.777Z,95.80
2023-04-14T12:01:01.803Z,95.60
2023-04-14T12:02:34.222Z,96.20
2023-04-14T12:04:06.840Z,91.75
2023-04-14T12:05:39.188Z,91.80
2023-04-14T12:07:12.897Z,89.40
2023-04-14T12:08:50.628Z,97.25
2023-04-14T12:10:22.636Z,90.75
2023-04-14T12:11:55.792Z,92.75
2023-04-14T12:13:28.400Z,94.75
2023-04-14T12:15:00.618Z,87.00
2023-04-14T12:16:32.756Z,93.50
2023-04-14T12:18:10.706Z,76.50
2023-04-14T12:19:43.269Z,70.00
2023-04-14T12:21:21.444Z,80.00
2023-04-14T12:22:58.070Z,79.00
2023-04-14T12:24:42.987Z,74.00
2023-04-14T12:26:15.133Z,74.75
2023-04-14T12:27:57.235Z,75.50
2023-04-14T12:29:29.321Z,65.00
2023-04-14T12:31:02.670Z,60.00
2023-04-14T12:32:39.869Z,58.25
2023-04-14T12:34:14.772Z,62.25
2023-04-14T12:35:46.795Z,62.50
2023-04-14T12:37:29.000Z,61.00
2023-04-14T12:39:07.077Z,56.50
2023-04-14T12:40:40.130Z,55.50
2023-04-14T12:42:11.932Z,54.75
2023-04-14T12:43:43.835Z,51.50
2023-04-14T12:45:16.490Z,51.75
2023-04-14T12:46:52.923Z,51.50
2023-04-14T12:48:45.264Z,51.75
2023-04-14T12:50:25.009Z,49.40
2023-04-14T12:51:56.913Z,52.25
2023-04-14T12:53:29.489Z,51.50
2023-04-14T12:55:03.331Z,51.40
2023-04-14T12:56:35.426Z,47.80
2023-04-14T12:58:07.776Z,48.20
2023-04-14T12:59:39.976Z,46.80
2023-04-14T13:01:12.016Z,45.00
2023-04-14T13:02:45.524Z,43.60
2023-04-14T13:04:18.902Z,43.40
2023-04-14T13:05:51.591Z,42.80
2023-04-14T13:07:23.820Z,44.80
2023-04-14T13:08:58.635Z,41.40
2023-04-14T13:10:30.487Z,47.00
2023-04-14T13:12:02.519Z,50.20
2023-04-14T13:13:34.414Z,57.75
2023-04-14T13:15:07.020Z,58.50
2023-04-14T13:16:38.913Z,61.75
2023-04-14T13:18:11.161Z,58.25
2023-04-14T13:19:43.105Z,65.25
2023-04-14T13:21:15.085Z,55.00
2023-04-14T13:22:48.095Z,62.75
2023-04-14T13:24:20.850Z,69.75
2023-04-14T13:25:52.725Z,64.00
2023-04-14T13:27:24.604Z,67.00
2023-04-14T13:28:56.536Z,73.50
2023-04-14T13:30:28.747Z,70.25
2023-04-14T13:32:01.319Z,73.25
2023-04-14T13:33:33.434Z,63.25
2023-04-14T13:35:05.957Z,84.50
2023-04-14T13:36:38.041Z,82.25
2023-04-14T13:38:10.068Z,93.25
2023-04-14T13:39:42.272Z,85.75
2023-04-14T13:41:15.718Z,82.25
2023-04-14T13:42:47.633Z,89.00
2023-04-14T13:44:19.602Z,83.00
2023-04-14T13:45:51.995Z,92.00
2023-04-14T13:47:26.242Z,84.00
2023-04-14T13:48:58.730Z,84.25
2023-04-14T13:50:30.997Z,89.75
2023-04-14T13:52:02.965Z,79.25
2023-04-14T13:53:34.877Z,82.75
2023-04-14T13:55:07.647Z,78.25
2023-04-14T13:56:39.622Z,76.75
2023-04-14T13:58:11.792Z,81.25
2023-04-14T13:59:43.997Z,73.50
2023-04-14T14:01:16.153Z,74.50
2023-04-14T14:02:48.185Z,68.50
2023-04-14T14:04:20.393Z,75.50
2023-04-14T14:05:52.837Z,65.75
2023-04-14T14:07:24.742Z,70.75
2023-04-14T14:09:04.872Z,65.25
2023-04-14T14:10:37.437Z,59.75
2023-04-14T14:12:11.649Z,70.50
2023-04-14T14:13:43.608Z,56.00
2023-04-14T14:15:15.473Z,61.50
2023-04-14T14:16:47.726Z,66.25
2023-04-14T14:18:20.044Z,73.50
2023-04-14T14:19:52.317Z,65.75
2023-04-14T14:21:24.215Z,77.00
2023-04-14T14:22:56.229Z,74.00
2023-04-14T14:24:29.010Z,74.75
2023-04-14T14:26:01.250Z,73.50
2023-04-14T14:27:33.788Z,83.25
2023-04-14T14:29:05.714Z,67.75
2023-04-14T14:30:37.666Z,79.50
2023-04-14T14:32:09.840Z,76.50
2023-04-14T14:33:41.774Z,72.50
2023-04-14T14:35:13.697Z,71.00
2023-04-14T14:36:46.731Z,67.50
2023-04-14T14:38:18.826Z,79.00
2023-04-14T14:39:50.803Z,69.00
2023-04-14T14:41:22.824Z,77.75
2023-04-14T14:42:54.816Z,77.50
2023-04-14T14:44:26.771Z,70.75
2023-04-14T14:45:58.722Z,71.75
2023-04-14T14:47:30.908Z,75.00
2023-04-14T14:49:03.398Z,67.25
2023-04-14T14:50:35.709Z,72.25
2023-04-14T14:52:07.586Z,67.50
2023-04-14T14:53:39.448Z,67.25
2023-04-14T14:55:11.462Z,67.50
2023-04-14T14:56:43.576Z,63.25
2023-04-14T14:58:15.690Z,62.50
2023-04-14T14:59:47.688Z,69.50
2023-04-14T15:01:19.761Z,58.75
2023-04-14T15:02:51.949Z,64.00
2023-04-14T15:04:24.147Z,73.75
2023-04-14T15:05:56.429Z,61.25
2023-04-14T15:07:28.322Z,53.50
2023-04-14T15:09:00.407Z,55.50
2023-04-14T15:10:32.247Z,60.25
2023-04-14T15:12:04.197Z,65.25
2023-04-14T15:13:36.205Z,54.75
2023-04-14T15:15:09.036Z,55.75
2023-04-14T15:16:41.349Z,54.25
2023-04-14T15:18:13.691Z,52.00
2023-04-14T15:19:45.868Z,47.75
2023-04-14T15:21:17.828Z,46.40
2023-04-14T15:22:49.951Z,45.40
2023-04-14T15:24:22.082Z,44.60
2023-04-14T15:25:54.247Z,43.20
2023-04-14T15:27:26.825Z,51.60
2023-04-14T15:28:58.730Z,44.40
2023-04-14T15:30:30.851Z,44.00
2023-04-14T15:32:02.939Z,41.80
2023-04-14T15:33:34.957Z,39.60
2023-04-14T15:35:07.131Z,39.00
2023-04-14T15:36:39.084Z,34.80
2023-04-14T15:38:11.147Z,32.60
2023-04-14T15:39:43.094Z,34.00
2023-04-14T15:41:14.977Z,35.60
2023-04-14T15:42:46.809Z,30.60
2023-04-14T15:44:19.005Z,30.20
2023-04-14T15:45:50.981Z,32.00
2023-04-14T15:47:22.901Z,32.20
2023-04-14T15:48:54.778Z,30.80
2023-04-14T15:50:26.674Z,25.40
2023-04-14T15:51:58.547Z,28.40
2023-04-14T15:53:30.830Z,29.60
2023-04-14T15:55:02.757Z,31.60
2023-04-14T15:56:35.678Z,27.60
2023-04-14T15:58:07.858Z,26.80
2023-04-14T15:59:40.092Z,23.40
2023-04-14T16:01:12.571Z,26.20
2023-04-14T16:02:46.468Z,25.60
2023-04-14T16:04:18.697Z,25.00
2023-04-14T16:05:50.639Z,19.60
2023-04-14T16:07:22.549Z,24.40
2023-04-14T16:08:54.456Z,25.20
2023-04-14T16:10:26.828Z,23.60
2023-04-14T16:11:58.744Z,21.80
2023-04-14T16:13:30.707Z,24.60
2023-04-14T16:15:02.913Z,21.60
2023-04-14T16:16:34.775Z,27.00
2023-04-14T16:18:06.627Z,21.60
2023-04-14T16:19:38.849Z,20.80
2023-04-14T16:21:10.783Z,21.40
2023-04-14T16:22:42.702Z,19.60
2023-04-14T16:24:14.497Z,19.00
2023-04-14T16:25:50.027Z,22.20
2023-04-14T16:27:22.292Z,16.60
2023-04-14T16:28:54.816Z,24.40
2023-04-14T16:30:26.772Z,15.00
2023-04-14T16:31:58.684Z,24.40
2023-04-14T16:33:32.555Z,15.40
2023-04-14T16:35:04.895Z,12.20
2023-04-14T16:36:38.123Z,21.00
2023-04-14T16:38:11.053Z,19.80
2023-04-14T16:39:42.928Z,23.40
2023-04-14T16:41:14.829Z,18.60
2023-04-14T16:42:47.368Z,23.40
2023-04-14T16:44:19.490Z,20.00
2023-04-14T16:45:54.579Z,17.00
2023-04-14T16:47:26.677Z,20.00
2023-04-14T16:48:58.597Z,18.20
2023-04-14T16:50:32.348Z,15.60
2023-04-14T16:52:04.583Z,17.00
2023-04-14T16:53:37.729Z,21.20
2023-04-14T16:55:10.106Z,17.80
2023-04-14T16:56:42.181Z,18.60
2023-04-14T16:58:14.149Z,19.00
2023-04-14T16:59:48.248Z,19.60
2023-04-14T17:01:20.229Z,17.60
2023-04-14T17:02:52.444Z,17.40
2023-04-14T17:04:24.876Z,20.00
2023-04-14T17:05:57.226Z,19.00
2023-04-14T17:07:29.143Z,17.00
2023-04-14T17:09:01.024Z,18.20
2023-04-14T17:10:32.904Z,15.80
2023-04-14T17:12:05.092Z,12.80
2023-04-14T17:13:36.959Z,20.80
2023-04-14T17:15:09.464Z,21.60
2023-04-14T17:16:41.537Z,17.20
2023-04-14T17:18:13.616Z,18.40
2023-04-14T17:19:45.733Z,17.20
2023-04-14T17:21:17.600Z,19.20
2023-04-14T17:22:51.221Z,18.80
2023-04-14T17:24:23.691Z,19.00
2023-04-14T17:25:56.404Z,14.20
2023-04-14T17:27:28.458Z,16.20
2023-04-14T17:29:00.695Z,16.80
2023-04-14T17:30:34.012Z,15.00
2023-04-14T17:32:06.162Z,16.20
2023-04-14T17:33:38.112Z,13.60
2023-04-14T17:35:10.581Z,15.00
2023-04-14T17:36:42.491Z,15.80
2023-04-14T17:38:14.631Z,14.20
2023-04-14T17:39:49.300Z,14.20
2023-04-14T17:41:21.381Z,14.20
2023-04-14T17:42:53.337Z,15.00
2023-04-14T17:44:33.001Z,16.20
2023-04-14T17:46:05.794Z,10.60
2023-04-14T17:47:39.795Z,15.20
2023-04-14T17:49:11.629Z,18.40
2023-04-14T17:50:44.415Z,15.80
2023-04-14T17:52:19.293Z,17.40
2023-04-14T17:53:51.632Z,17.00
2023-04-14T17:55:23.487Z,15.20
2023-04-14T17:56:56.794Z,16.60
2023-04-14T17:58:28.888Z,16.20
2023-04-14T18:00:01.423Z,18.40
2023-04-14T18:01:33.602Z,13.40
2023-04-14T18:03:05.776Z,17.20
2023-04-14T18:04:37.714Z,15.80
2023-04-14T18:06:11.080Z,14.60
2023-04-14T18:07:42.966Z,15.20
2023-04-14T18:09:14.849Z,14.80
2023-04-14T18:10:46.864Z,14.20
2023-04-14T18:12:18.972Z,17.20
2023-04-14T18:13:51.061Z,18.00
2023-04-14T18:15:23.846Z,13.00
2023-04-14T18:16:55.788Z,16.00
2023-04-14T18:18:27.811Z,15.40
2023-04-14T18:19:59.720Z,16.40
2023-04-14T18:21:31.749Z,18.60
2023-04-14T18:23:03.671Z,15.00
2023-04-14T18:29:20.005Z,16.00
2023-04-14T18:31:01.709Z,15.60
2023-04-14T18:32:33.678Z,12.80
2023-04-14T18:34:05.859Z,11.80
2023-04-14T18:35:37.680Z,16.00
2023-04-14T18:37:10.587Z,17.60
2023-04-14T18:38:42.830Z,12.00
2023-04-14T18:40:14.943Z,14.40
2023-04-14T18:41:46.935Z,19.00
2023-04-14T18:43:18.861Z,16.00
2023-04-14T18:44:50.823Z,15.80
2023-04-14T18:46:23.205Z,16.60
2023-04-14T18:47:55.543Z,16.40
2023-04-14T18:49:28.377Z,15.00
2023-04-14T18:51:10.395Z,16.20
2023-04-14T18:52:42.326Z,16.00
2023-04-14T18:54:14.737Z,17.00
2023-04-14T18:55:47.358Z,13.60
2023-04-14T18:57:19.697Z,13.00
2023-04-14T18:58:51.930Z,28.40
2023-04-14T19:00:24.945Z,42.00
2023-04-14T19:01:58.290Z,42.60
2023-04-14T19:03:30.565Z,45.60
2023-04-14T19:05:02.649Z,48.75
2023-04-14T19:06:34.923Z,58.25
2023-04-14T19:08:09.953Z,65.25
2023-04-14T19:09:41.805Z,69.50
2023-04-14T19:11:13.710Z,68.75
2023-04-14T19:12:45.738Z,73.75
2023-04-14T19:14:17.799Z,79.25
2023-04-14T19:15:50.373Z,88.00
2023-04-14T19:17:22.419Z,80.00
2023-04-14T19:18:54.940Z,91.00
2023-04-14T19:20:26.837Z,99.20
2023-04-14T19:21:58.842Z,96.40
2023-04-14T19:23:30.741Z,103.40
2023-04-14T19:25:02.697Z,103.50
2023-04-14T19:26:37.763Z,121.50
2023-04-14T19:28:16.695Z,113.75
2023-04-14T19:29:48.651Z,125.25
2023-04-14T19:31:21.591Z,127.75
2023-04-14T19:32:54.790Z,133.25
2023-04-14T19:34:27.737Z,137.25
2023-04-14T19:35:59.605Z,134.00
2023-04-14T19:37:32.053Z,135.25
2023-04-14T19:39:05.288Z,127.75
2023-04-14T19:40:37.284Z,144.50
2023-04-14T19:42:09.586Z,140.50
2023-04-14T19:43:41.417Z,146.25
2023-04-14T19:45:13.493Z,144.75
2023-04-14T19:46:46.552Z,145.75
2023-04-14T19:48:23.524Z,147.25
2023-04-14T19:49:59.677Z,136.75
2023-04-14T19:51:32.970Z,137.75
2023-04-14T19:53:04.806Z,149.75
2023-04-14T19:54:38.004Z,160.00
2023-04-14T19:56:09.953Z,150.75
2023-04-14T19:57:42.129Z,161.75
2023-04-14T19:59:14.045Z,165.50
2023-04-14T20:00:46.372Z,169.25
2023-04-14T20:02:19.172Z,174.25
2023-04-14T20:04:09.297Z,209.67
2023-04-14T20:05:44.354Z,314.00
2023-04-14T20:07:16.282Z,243.00
2023-04-14T20:08:49.145Z,229.00
2023-04-14T20:10:21.385Z,235.00
2023-04-14T20:11:53.709Z,234.67
2023-04-14T20:13:30.535Z,234.67
2023-04-14T20:15:03.554Z,233.00
2023-04-14T20:16:35.469Z,222.67
2023-04-14T20:18:08.045Z,221.33
2023-04-14T20:19:40.047Z,234.67
2023-04-14T20:21:13.854Z,237.67
2023-04-14T20:22:45.797Z,228.67
2023-04-14T20:24:17.886Z,220.67
2023-04-14T20:25:50.419Z,230.25
2023-04-14T20:27:23.911Z,240.67
2023-04-14T20:28:56.273Z,231.67
2023-04-14T20:30:29.532Z,224.00
2023-04-14T20:32:02.394Z,246.00
2023-04-14T20:33:34.420Z,240.33
2023-04-14T20:35:06.481Z,237.50
2023-04-14T20:36:38.317Z,213.33
2023-04-14T20:38:11.412Z,212.00
2023-04-14T20:39:46.454Z,222.33
2023-04-14T20:41:18.388Z,232.67
2023-04-14T20:42:50.263Z,220.67
2023-04-14T20:44:22.420Z,205.00
2023-04-14T20:45:56.009Z,210.00
2023-04-14T20:47:27.995Z,208.67
2023-04-14T20:49:01.158Z,201.00
2023-04-14T20:50:33.835Z,182.33
2023-04-14T20:52:07.352Z,188.00
2023-04-14T20:53:39.388Z,173.50
2023-04-14T20:55:12.014Z,174.75
2023-04-14T20:56:44.247Z,165.75
2023-04-14T20:58:16.266Z,171.00
2023-04-14T20:59:48.250Z,146.00
2023-04-14T21:01:20.633Z,153.50
2023-04-14T21:02:52.815Z,149.00
2023-04-14T21:04:26.122Z,157.50
2023-04-14T21:05:58.153Z,148.75
2023-04-14T21:07:30.500Z,149.25
2023-04-14T21:09:02.707Z,131.25
2023-04-14T21:10:35.758Z,137.50
2023-04-14T21:12:35.602Z,136.25
2023-04-14T21:15:40.551Z,123.25
2023-04-14T21:15:59.899Z,130.50
2023-04-14T21:17:32.535Z,135.75
2023-04-14T21:19:04.824Z,113.00
2023-04-14T21:20:37.055Z,99.20
2023-04-14T21:22:08.962Z,102.00
2023-04-14T21:23:41.301Z,91.40
2023-04-14T21:25:13.194Z,94.20
2023-04-14T21:26:45.028Z,107.20
2023-04-14T21:28:16.978Z,93.40
2023-04-14T21:29:49.089Z,106.00
2023-04-14T21:31:21.163Z,113.00
2023-04-14T21:32:53.065Z,113.00
2023-04-14T21:34:27.501Z,111.40
2023-04-14T21:36:00.532Z,118.25
2023-04-14T21:37:32.886Z,113.20
2023-04-14T21:39:04.959Z,115.25
2023-04-14T21:40:37.070Z,105.25
2023-04-14T21:42:09.680Z,114.75
2023-04-14T21:43:41.911Z,117.00
2023-04-14T21:45:14.209Z,106.50
2023-04-14T21:46:46.268Z,107.00
2023-04-14T21:48:19.310Z,106.75
2023-04-14T21:49:51.722Z,108.60
2023-04-14T21:51:24.032Z,111.80
2023-04-14T21:52:56.696Z,120.75
2023-04-14T21:54:30.302Z,120.75
2023-04-14T21:56:09.796Z,115.00
2023-04-14T21:57:49.766Z,108.25
2023-04-14T21:59:22.202Z,115.25
2023-04-14T22:00:54.057Z,100.80
2023-04-14T22:02:25.974Z,96.20
2023-04-14T22:03:58.310Z,88.00
2023-04-14T22:05:30.172Z,74.00
2023-04-14T22:07:03.086Z,66.00
2023-04-14T22:08:35.014Z,62.50
2023-04-14T22:10:07.315Z,72.75
2023-04-14T22:11:39.844Z,75.75
2023-04-14T22:13:11.836Z,77.00
2023-04-14T22:14:43.669Z,75.25
2023-04-14T22:16:16.609Z,84.00
2023-04-14T22:17:48.548Z,90.25
2023-04-14T22:19:20.505Z,88.50
2023-04-14T22:20:52.381Z,87.00
2023-04-14T22:22:24.554Z,84.75
2023-04-14T22:23:57.249Z,86.25
2023-04-14T22:25:29.085Z,85.00
2023-04-14T22:27:00.923Z,87.25
2023-04-14T22:28:32.886Z,87.25
2023-04-14T22:30:05.082Z,87.75
2023-04-14T22:31:37.109Z,89.75
2023-04-14T22:33:09.078Z,81.75
2023-04-14T22:34:40.988Z,79.25
